sensor_id;sensor_type;location;lat;lon;timestamp;P1;durP1;ratioP1;P2;durP2;ratioP2
16994;SDS011;8614;48.522;9.206;2022-09-09T00:00:24;7.00;;;6.50;;
16994;SDS011;8614;48.522;9.206;2022-09-09T00:02:54;7.03;;;6.30;;
16994;SDS011;8614;48.522;9.206;2022-09-09T00:05:29;6.40;;;6.00;;
16994;SDS011;8614;48.522;9.206;2022-09-09T00:08:00;7.03;;;6.40;;
16994;SDS011;8614;48.522;9.206;2022-09-09T00:10:30;6.60;;;6.10;;
16994;SDS011;8614;48.522;9.206;2022-09-09T00:13:08;7.50;;;6.80;;
16994;SDS011;8614;48.522;9.206;2022-09-09T00:15:43;9.63;;;7.53;;
16994;SDS011;8614;48.522;9.206;2022-09-09T00:18:18;11.13;;;7.67;;
16994;SDS011;8614;48.522;9.206;2022-09-09T00:20:52;7.30;;;6.70;;
16994;SDS011;8614;48.522;9.206;2022-09-09T00:23:24;6.87;;;6.20;;
16994;SDS011;8614;48.522;9.206;2022-09-09T00:25:56;6.27;;;5.70;;
16994;SDS011;8614;48.522;9.206;2022-09-09T00:28:32;6.60;;;6.10;;
16994;SDS011;8614;48.522;9.206;2022-09-09T00:31:08;6.50;;;6.00;;
16994;SDS011;8614;48.522;9.206;2022-09-09T00:33:39;6.57;;;5.97;;
16994;SDS011;8614;48.522;9.206;2022-09-09T00:36:09;6.70;;;6.10;;
16994;SDS011;8614;48.522;9.206;2022-09-09T00:38:42;6.83;;;6.33;;
16994;SDS011;8614;48.522;9.206;2022-09-09T00:41:15;7.43;;;6.57;;
16994;SDS011;8614;48.522;9.206;2022-09-09T00:43:49;6.70;;;6.20;;
16994;SDS011;8614;48.522;9.206;2022-09-09T00:46:29;6.53;;;6.00;;
16994;SDS011;8614;48.522;9.206;2022-09-09T00:49:20;7.23;;;6.43;;
16994;SDS011;8614;48.522;9.206;2022-09-09T00:51:59;7.00;;;6.30;;
16994;SDS011;8614;48.522;9.206;2022-09-09T00:54:40;6.30;;;5.90;;
16994;SDS011;8614;48.522;9.206;2022-09-09T00:57:13;6.43;;;5.93;;
16994;SDS011;8614;48.522;9.206;2022-09-09T00:59:52;7.00;;;6.50;;
16994;SDS011;8614;48.522;9.206;2022-09-09T01:02:27;6.70;;;6.20;;
16994;SDS011;8614;48.522;9.206;2022-09-09T01:04:58;7.83;;;7.13;;
16994;SDS011;8614;48.522;9.206;2022-09-09T01:07:33;6.70;;;6.20;;
16994;SDS011;8614;48.522;9.206;2022-09-09T01:10:00;6.40;;;5.80;;
16994;SDS011;8614;48.522;9.206;2022-09-09T01:12:33;6.57;;;6.03;;
16994;SDS011;8614;48.522;9.206;2022-09-09T01:15:09;6.73;;;6.20;;
16994;SDS011;8614;48.522;9.206;2022-09-09T01:17:48;6.70;;;6.10;;
16994;SDS011;8614;48.522;9.206;2022-09-09T01:20:20;6.73;;;6.17;;
16994;SDS011;8614;48.522;9.206;2022-09-09T01:23:00;7.17;;;6.43;;
16994;SDS011;8614;48.522;9.206;2022-09-09T01:28:46;6.43;;;6.00;;
16994;SDS011;8614;48.522;9.206;2022-09-09T01:31:16;6.60;;;6.10;;
16994;SDS011;8614;48.522;9.206;2022-09-09T01:33:46;6.37;;;5.90;;
16994;SDS011;8614;48.522;9.206;2022-09-09T01:36:15;6.57;;;5.97;;
16994;SDS011;8614;48.522;9.206;2022-09-09T01:38:51;6.70;;;6.10;;
16994;SDS011;8614;48.522;9.206;2022-09-09T01:41:19;6.30;;;5.80;;
16994;SDS011;8614;48.522;9.206;2022-09-09T01:43:53;6.70;;;6.10;;
16994;SDS011;8614;48.522;9.206;2022-09-09T01:46:22;6.43;;;6.03;;
16994;SDS011;8614;48.522;9.206;2022-09-09T01:48:50;7.37;;;5.90;;
16994;SDS011;8614;48.522;9.206;2022-09-09T01:51:19;6.30;;;5.90;;
16994;SDS011;8614;48.522;9.206;2022-09-09T01:53:47;6.10;;;5.70;;
16994;SDS011;8614;48.522;9.206;2022-09-09T01:56:18;6.10;;;5.60;;
16994;SDS011;8614;48.522;9.206;2022-09-09T01:59:05;6.30;;;5.83;;
16994;SDS011;8614;48.522;9.206;2022-09-09T02:01:45;6.30;;;5.77;;
16994;SDS011;8614;48.522;9.206;2022-09-09T02:04:23;6.23;;;5.70;;
16994;SDS011;8614;48.522;9.206;2022-09-09T02:07:02;6.73;;;6.07;;
16994;SDS011;8614;48.522;9.206;2022-09-09T02:09:31;6.20;;;5.70;;
16994;SDS011;8614;48.522;9.206;2022-09-09T02:12:00;6.23;;;5.77;;
16994;SDS011;8614;48.522;9.206;2022-09-09T02:14:44;6.40;;;5.90;;
16994;SDS011;8614;48.522;9.206;2022-09-09T02:17:16;6.50;;;6.10;;
16994;SDS011;8614;48.522;9.206;2022-09-09T02:20:00;7.30;;;6.70;;
16994;SDS011;8614;48.522;9.206;2022-09-09T02:22:43;7.00;;;6.40;;
16994;SDS011;8614;48.522;9.206;2022-09-09T02:25:15;6.53;;;6.13;;
16994;SDS011;8614;48.522;9.206;2022-09-09T02:27:47;6.67;;;6.10;;
16994;SDS011;8614;48.522;9.206;2022-09-09T02:30:18;7.10;;;6.50;;
16994;SDS011;8614;48.522;9.206;2022-09-09T02:32:51;7.07;;;6.57;;
16994;SDS011;8614;48.522;9.206;2022-09-09T02:35:24;6.77;;;6.27;;
16994;SDS011;8614;48.522;9.206;2022-09-09T02:37:55;7.00;;;6.50;;
16994;SDS011;8614;48.522;9.206;2022-09-09T02:40:26;6.43;;;6.03;;
16994;SDS011;8614;48.522;9.206;2022-09-09T02:42:59;6.87;;;6.37;;
16994;SDS011;8614;48.522;9.206;2022-09-09T02:45:31;7.10;;;6.60;;
16994;SDS011;8614;48.522;9.206;2022-09-09T02:48:04;8.57;;;6.83;;
16994;SDS011;8614;48.522;9.206;2022-09-09T02:50:37;9.27;;;8.33;;
16994;SDS011;8614;48.522;9.206;2022-09-09T02:53:10;7.67;;;7.00;;
16994;SDS011;8614;48.522;9.206;2022-09-09T02:55:45;8.23;;;7.50;;
16994;SDS011;8614;48.522;9.206;2022-09-09T02:58:17;9.50;;;8.17;;
16994;SDS011;8614;48.522;9.206;2022-09-09T03:00:55;8.63;;;7.83;;
16994;SDS011;8614;48.522;9.206;2022-09-09T03:03:24;8.87;;;7.90;;
16994;SDS011;8614;48.522;9.206;2022-09-09T03:05:52;8.67;;;7.90;;
16994;SDS011;8614;48.522;9.206;2022-09-09T03:08:19;9.60;;;8.70;;
16994;SDS011;8614;48.522;9.206;2022-09-09T03:10:46;9.50;;;8.50;;
16994;SDS011;8614;48.522;9.206;2022-09-09T03:13:14;10.23;;;9.17;;
16994;SDS011;8614;48.522;9.206;2022-09-09T03:15:43;9.60;;;8.73;;
16994;SDS011;8614;48.522;9.206;2022-09-09T03:18:16;9.70;;;8.80;;
16994;SDS011;8614;48.522;9.206;2022-09-09T03:20:47;9.97;;;8.97;;
16994;SDS011;8614;48.522;9.206;2022-09-09T03:23:15;9.73;;;8.73;;
16994;SDS011;8614;48.522;9.206;2022-09-09T03:25:46;9.13;;;8.23;;
16994;SDS011;8614;48.522;9.206;2022-09-09T03:28:15;8.00;;;7.30;;
16994;SDS011;8614;48.522;9.206;2022-09-09T03:30:43;7.80;;;7.10;;
16994;SDS011;8614;48.522;9.206;2022-09-09T03:33:10;7.63;;;7.03;;
16994;SDS011;8614;48.522;9.206;2022-09-09T03:35:44;8.37;;;7.67;;
16994;SDS011;8614;48.522;9.206;2022-09-09T03:38:14;8.70;;;8.00;;
16994;SDS011;8614;48.522;9.206;2022-09-09T03:40:48;9.27;;;8.37;;
16994;SDS011;8614;48.522;9.206;2022-09-09T03:43:16;10.00;;;9.07;;
16994;SDS011;8614;48.522;9.206;2022-09-09T03:45:45;12.50;;;11.20;;
16994;SDS011;8614;48.522;9.206;2022-09-09T03:48:13;13.00;;;11.70;;
16994;SDS011;8614;48.522;9.206;2022-09-09T03:50:44;14.93;;;12.67;;
16994;SDS011;8614;48.522;9.206;2022-09-09T03:53:11;10.77;;;9.73;;
16994;SDS011;8614;48.522;9.206;2022-09-09T03:55:38;10.00;;;9.17;;
16994;SDS011;8614;48.522;9.206;2022-09-09T03:58:07;8.87;;;8.07;;
16994;SDS011;8614;48.522;9.206;2022-09-09T04:00:34;9.03;;;8.33;;
16994;SDS011;8614;48.522;9.206;2022-09-09T04:03:01;8.40;;;7.70;;
16994;SDS011;8614;48.522;9.206;2022-09-09T04:05:28;7.87;;;7.30;;
16994;SDS011;8614;48.522;9.206;2022-09-09T04:07:56;7.97;;;7.30;;
16994;SDS011;8614;48.522;9.206;2022-09-09T04:10:23;7.90;;;7.30;;
16994;SDS011;8614;48.522;9.206;2022-09-09T04:12:52;7.97;;;7.40;;
16994;SDS011;8614;48.522;9.206;2022-09-09T04:15:20;7.67;;;7.27;;
16994;SDS011;8614;48.522;9.206;2022-09-09T04:17:47;8.03;;;7.53;;
16994;SDS011;8614;48.522;9.206;2022-09-09T04:20:15;8.00;;;7.50;;
16994;SDS011;8614;48.522;9.206;2022-09-09T04:22:43;8.57;;;7.80;;
16994;SDS011;8614;48.522;9.206;2022-09-09T04:25:12;8.00;;;7.50;;
16994;SDS011;8614;48.522;9.206;2022-09-09T04:27:39;7.70;;;7.20;;
16994;SDS011;8614;48.522;9.206;2022-09-09T04:30:08;7.60;;;7.20;;
16994;SDS011;8614;48.522;9.206;2022-09-09T04:32:39;7.50;;;7.00;;
16994;SDS011;8614;48.522;9.206;2022-09-09T04:35:06;8.00;;;7.50;;
16994;SDS011;8614;48.522;9.206;2022-09-09T04:37:33;7.90;;;7.40;;
16994;SDS011;8614;48.522;9.206;2022-09-09T04:40:00;8.07;;;7.47;;
16994;SDS011;8614;48.522;9.206;2022-09-09T04:42:30;7.80;;;7.30;;
16994;SDS011;8614;48.522;9.206;2022-09-09T04:45:01;8.30;;;7.60;;
16994;SDS011;8614;48.522;9.206;2022-09-09T04:47:28;8.40;;;7.90;;
16994;SDS011;8614;48.522;9.206;2022-09-09T04:49:55;8.37;;;7.80;;
16994;SDS011;8614;48.522;9.206;2022-09-09T04:52:22;7.97;;;7.47;;
16994;SDS011;8614;48.522;9.206;2022-09-09T04:54:49;8.30;;;7.70;;
16994;SDS011;8614;48.522;9.206;2022-09-09T04:57:17;7.87;;;7.27;;
16994;SDS011;8614;48.522;9.206;2022-09-09T04:59:46;8.17;;;7.50;;
16994;SDS011;8614;48.522;9.206;2022-09-09T05:02:13;7.97;;;7.37;;
16994;SDS011;8614;48.522;9.206;2022-09-09T05:04:40;8.30;;;7.60;;
16994;SDS011;8614;48.522;9.206;2022-09-09T05:07:07;8.20;;;7.53;;
16994;SDS011;8614;48.522;9.206;2022-09-09T05:09:34;8.80;;;7.97;;
16994;SDS011;8614;48.522;9.206;2022-09-09T05:12:01;10.13;;;7.97;;
16994;SDS011;8614;48.522;9.206;2022-09-09T05:14:33;8.33;;;7.67;;
16994;SDS011;8614;48.522;9.206;2022-09-09T05:17:02;8.10;;;7.60;;
16994;SDS011;8614;48.522;9.206;2022-09-09T05:19:31;8.23;;;7.63;;
16994;SDS011;8614;48.522;9.206;2022-09-09T05:21:57;8.40;;;7.80;;
16994;SDS011;8614;48.522;9.206;2022-09-09T05:24:33;8.83;;;8.13;;
16994;SDS011;8614;48.522;9.206;2022-09-09T05:27:02;8.33;;;7.80;;
16994;SDS011;8614;48.522;9.206;2022-09-09T05:29:31;8.43;;;7.93;;
16994;SDS011;8614;48.522;9.206;2022-09-09T05:32:01;7.97;;;7.57;;
16994;SDS011;8614;48.522;9.206;2022-09-09T05:34:29;8.50;;;7.90;;
16994;SDS011;8614;48.522;9.206;2022-09-09T05:36:56;8.70;;;8.00;;
16994;SDS011;8614;48.522;9.206;2022-09-09T05:39:24;8.60;;;7.90;;
16994;SDS011;8614;48.522;9.206;2022-09-09T05:41:51;8.50;;;8.00;;
16994;SDS011;8614;48.522;9.206;2022-09-09T05:44:18;8.20;;;7.70;;
16994;SDS011;8614;48.522;9.206;2022-09-09T05:46:45;8.50;;;7.90;;
16994;SDS011;8614;48.522;9.206;2022-09-09T05:49:14;8.60;;;7.90;;
16994;SDS011;8614;48.522;9.206;2022-09-09T05:51:42;8.67;;;7.90;;
16994;SDS011;8614;48.522;9.206;2022-09-09T05:54:11;8.80;;;8.10;;
16994;SDS011;8614;48.522;9.206;2022-09-09T05:56:42;8.40;;;7.80;;
16994;SDS011;8614;48.522;9.206;2022-09-09T05:59:09;8.53;;;8.00;;
16994;SDS011;8614;48.522;9.206;2022-09-09T06:01:38;8.37;;;7.83;;
16994;SDS011;8614;48.522;9.206;2022-09-09T06:04:06;8.90;;;8.30;;
16994;SDS011;8614;48.522;9.206;2022-09-09T06:06:36;8.60;;;8.10;;
16994;SDS011;8614;48.522;9.206;2022-09-09T06:09:11;8.93;;;8.30;;
16994;SDS011;8614;48.522;9.206;2022-09-09T06:11:41;8.53;;;7.93;;
16994;SDS011;8614;48.522;9.206;2022-09-09T06:14:09;9.30;;;8.60;;
16994;SDS011;8614;48.522;9.206;2022-09-09T06:16:37;8.10;;;7.60;;
16994;SDS011;8614;48.522;9.206;2022-09-09T06:19:10;8.63;;;7.93;;
16994;SDS011;8614;48.522;9.206;2022-09-09T06:21:39;8.97;;;8.37;;
16994;SDS011;8614;48.522;9.206;2022-09-09T06:24:08;8.97;;;8.30;;
16994;SDS011;8614;48.522;9.206;2022-09-09T06:26:36;9.93;;;8.70;;
16994;SDS011;8614;48.522;9.206;2022-09-09T06:29:06;9.13;;;8.53;;
16994;SDS011;8614;48.522;9.206;2022-09-09T06:31:34;9.23;;;8.63;;
16994;SDS011;8614;48.522;9.206;2022-09-09T06:34:12;8.57;;;8.03;;
16994;SDS011;8614;48.522;9.206;2022-09-09T06:36:44;8.93;;;8.43;;
16994;SDS011;8614;48.522;9.206;2022-09-09T06:39:12;9.70;;;8.90;;
16994;SDS011;8614;48.522;9.206;2022-09-09T06:41:41;9.67;;;9.07;;
16994;SDS011;8614;48.522;9.206;2022-09-09T06:44:20;9.27;;;8.60;;
16994;SDS011;8614;48.522;9.206;2022-09-09T06:46:48;2.70;;;2.40;;
16994;SDS011;8614;48.522;9.206;2022-09-09T06:49:15;3.37;;;2.50;;
16994;SDS011;8614;48.522;9.206;2022-09-09T06:51:42;4.93;;;4.53;;
16994;SDS011;8614;48.522;9.206;2022-09-09T06:54:12;3.43;;;2.40;;
16994;SDS011;8614;48.522;9.206;2022-09-09T06:56:43;5.83;;;4.67;;
16994;SDS011;8614;48.522;9.206;2022-09-09T06:59:18;7.10;;;6.60;;
16994;SDS011;8614;48.522;9.206;2022-09-09T07:01:46;2.57;;;2.37;;
16994;SDS011;8614;48.522;9.206;2022-09-09T07:04:14;4.40;;;4.00;;
16994;SDS011;8614;48.522;9.206;2022-09-09T07:06:44;7.70;;;7.10;;
16994;SDS011;8614;48.522;9.206;2022-09-09T07:09:17;9.37;;;8.77;;
16994;SDS011;8614;48.522;9.206;2022-09-09T07:11:48;9.03;;;8.20;;
16994;SDS011;8614;48.522;9.206;2022-09-09T07:14:17;5.90;;;5.50;;
16994;SDS011;8614;48.522;9.206;2022-09-09T07:16:48;8.40;;;7.90;;
16994;SDS011;8614;48.522;9.206;2022-09-09T07:19:16;8.97;;;8.37;;
16994;SDS011;8614;48.522;9.206;2022-09-09T07:21:45;8.57;;;7.97;;
16994;SDS011;8614;48.522;9.206;2022-09-09T07:24:15;9.83;;;8.30;;
16994;SDS011;8614;48.522;9.206;2022-09-09T07:26:45;2.50;;;2.30;;
16994;SDS011;8614;48.522;9.206;2022-09-09T07:29:12;8.83;;;8.20;;
16994;SDS011;8614;48.522;9.206;2022-09-09T07:31:40;8.23;;;7.63;;
16994;SDS011;8614;48.522;9.206;2022-09-09T07:34:16;7.43;;;6.90;;
16994;SDS011;8614;48.522;9.206;2022-09-09T07:36:43;7.90;;;7.30;;
16994;SDS011;8614;48.522;9.206;2022-09-09T07:39:12;7.80;;;7.20;;
16994;SDS011;8614;48.522;9.206;2022-09-09T07:41:46;6.77;;;6.27;;
16994;SDS011;8614;48.522;9.206;2022-09-09T07:44:18;5.37;;;4.87;;
16994;SDS011;8614;48.522;9.206;2022-09-09T07:46:50;4.37;;;2.43;;
16994;SDS011;8614;48.522;9.206;2022-09-09T07:49:21;4.63;;;2.27;;
16994;SDS011;8614;48.522;9.206;2022-09-09T07:51:49;4.50;;;2.67;;
16994;SDS011;8614;48.522;9.206;2022-09-09T07:54:18;4.60;;;3.60;;
16994;SDS011;8614;48.522;9.206;2022-09-09T07:56:50;5.10;;;3.60;;
16994;SDS011;8614;48.522;9.206;2022-09-09T07:59:20;7.80;;;7.20;;
16994;SDS011;8614;48.522;9.206;2022-09-09T08:01:51;5.30;;;4.83;;
16994;SDS011;8614;48.522;9.206;2022-09-09T08:04:23;9.10;;;8.03;;
16994;SDS011;8614;48.522;9.206;2022-09-09T08:06:51;7.37;;;6.73;;
16994;SDS011;8614;48.522;9.206;2022-09-09T08:09:22;5.40;;;2.97;;
16994;SDS011;8614;48.522;9.206;2022-09-09T08:11:55;7.80;;;7.17;;
16994;SDS011;8614;48.522;9.206;2022-09-09T08:14:23;5.10;;;3.80;;
16994;SDS011;8614;48.522;9.206;2022-09-09T08:16:51;4.30;;;3.90;;
16994;SDS011;8614;48.522;9.206;2022-09-09T08:19:21;8.60;;;8.10;;
16994;SDS011;8614;48.522;9.206;2022-09-09T08:21:48;10.07;;;9.37;;
16994;SDS011;8614;48.522;9.206;2022-09-09T08:24:16;9.07;;;8.47;;
16994;SDS011;8614;48.522;9.206;2022-09-09T08:26:47;4.43;;;3.10;;
16994;SDS011;8614;48.522;9.206;2022-09-09T08:29:18;4.30;;;2.70;;
16994;SDS011;8614;48.522;9.206;2022-09-09T08:31:47;4.50;;;4.13;;
16994;SDS011;8614;48.522;9.206;2022-09-09T08:34:15;6.97;;;6.50;;
16994;SDS011;8614;48.522;9.206;2022-09-09T08:36:45;8.00;;;7.30;;
16994;SDS011;8614;48.522;9.206;2022-09-09T08:39:13;9.20;;;8.30;;
16994;SDS011;8614;48.522;9.206;2022-09-09T08:41:48;8.17;;;7.43;;
16994;SDS011;8614;48.522;9.206;2022-09-09T08:44:40;8.30;;;7.70;;
16994;SDS011;8614;48.522;9.206;2022-09-09T08:47:18;6.70;;;6.03;;
16994;SDS011;8614;48.522;9.206;2022-09-09T08:49:59;7.77;;;7.10;;
16994;SDS011;8614;48.522;9.206;2022-09-09T08:52:36;7.47;;;6.97;;
16994;SDS011;8614;48.522;9.206;2022-09-09T08:55:11;7.60;;;6.90;;
16994;SDS011;8614;48.522;9.206;2022-09-09T08:57:46;6.97;;;6.47;;
16994;SDS011;8614;48.522;9.206;2022-09-09T09:00:16;2.53;;;2.07;;
16994;SDS011;8614;48.522;9.206;2022-09-09T09:02:46;3.77;;;2.40;;
16994;SDS011;8614;48.522;9.206;2022-09-09T09:05:23;3.77;;;2.13;;
16994;SDS011;8614;48.522;9.206;2022-09-09T09:08:01;2.70;;;2.03;;
16994;SDS011;8614;48.522;9.206;2022-09-09T09:10:36;3.60;;;2.33;;
16994;SDS011;8614;48.522;9.206;2022-09-09T09:13:15;2.60;;;1.97;;
16994;SDS011;8614;48.522;9.206;2022-09-09T09:15:48;2.00;;;1.80;;
16994;SDS011;8614;48.522;9.206;2022-09-09T09:18:18;3.10;;;2.10;;
16994;SDS011;8614;48.522;9.206;2022-09-09T09:20:54;3.40;;;1.90;;
16994;SDS011;8614;48.522;9.206;2022-09-09T09:23:29;3.37;;;2.03;;
16994;SDS011;8614;48.522;9.206;2022-09-09T09:26:06;3.27;;;2.07;;
16994;SDS011;8614;48.522;9.206;2022-09-09T09:28:36;3.73;;;2.00;;
16994;SDS011;8614;48.522;9.206;2022-09-09T09:31:13;4.80;;;4.40;;
16994;SDS011;8614;48.522;9.206;2022-09-09T09:33:45;6.70;;;6.20;;
16994;SDS011;8614;48.522;9.206;2022-09-09T09:36:16;7.30;;;6.70;;
16994;SDS011;8614;48.522;9.206;2022-09-09T09:38:51;7.70;;;7.10;;
16994;SDS011;8614;48.522;9.206;2022-09-09T09:41:31;6.43;;;5.93;;
16994;SDS011;8614;48.522;9.206;2022-09-09T09:44:04;5.20;;;4.80;;
16994;SDS011;8614;48.522;9.206;2022-09-09T09:46:34;5.90;;;5.40;;
16994;SDS011;8614;48.522;9.206;2022-09-09T09:49:09;5.77;;;5.27;;
16994;SDS011;8614;48.522;9.206;2022-09-09T09:51:39;5.63;;;5.23;;
16994;SDS011;8614;48.522;9.206;2022-09-09T09:54:13;7.00;;;6.50;;
16994;SDS011;8614;48.522;9.206;2022-09-09T09:56:50;7.80;;;7.10;;
16994;SDS011;8614;48.522;9.206;2022-09-09T09:59:22;7.83;;;7.03;;
16994;SDS011;8614;48.522;9.206;2022-09-09T10:02:10;6.60;;;6.00;;
16994;SDS011;8614;48.522;9.206;2022-09-09T10:04:41;7.03;;;6.63;;
16994;SDS011;8614;48.522;9.206;2022-09-09T10:07:10;7.00;;;6.50;;
16994;SDS011;8614;48.522;9.206;2022-09-09T10:09:37;7.63;;;7.03;;
16994;SDS011;8614;48.522;9.206;2022-09-09T10:12:07;7.50;;;6.80;;
16994;SDS011;8614;48.522;9.206;2022-09-09T10:14:45;7.17;;;6.67;;
16994;SDS011;8614;48.522;9.206;2022-09-09T10:17:22;7.37;;;6.77;;
16994;SDS011;8614;48.522;9.206;2022-09-09T10:19:59;7.63;;;7.00;;
16994;SDS011;8614;48.522;9.206;2022-09-09T10:22:43;7.20;;;6.50;;
16994;SDS011;8614;48.522;9.206;2022-09-09T10:25:21;6.53;;;5.93;;
16994;SDS011;8614;48.522;9.206;2022-09-09T10:28:06;8.07;;;6.90;;
16994;SDS011;8614;48.522;9.206;2022-09-09T10:30:46;6.80;;;6.27;;
16994;SDS011;8614;48.522;9.206;2022-09-09T10:33:25;6.83;;;6.33;;
16994;SDS011;8614;48.522;9.206;2022-09-09T10:36:00;6.70;;;6.10;;
16994;SDS011;8614;48.522;9.206;2022-09-09T10:38:34;6.80;;;6.23;;
16994;SDS011;8614;48.522;9.206;2022-09-09T10:41:16;6.70;;;6.10;;
16994;SDS011;8614;48.522;9.206;2022-09-09T10:46:58;6.60;;;6.10;;
16994;SDS011;8614;48.522;9.206;2022-09-09T10:49:47;6.57;;;5.97;;
16994;SDS011;8614;48.522;9.206;2022-09-09T10:52:35;6.20;;;5.80;;
16994;SDS011;8614;48.522;9.206;2022-09-09T10:55:09;6.17;;;5.70;;
16994;SDS011;8614;48.522;9.206;2022-09-09T10:57:39;6.37;;;5.87;;
16994;SDS011;8614;48.522;9.206;2022-09-09T11:00:14;6.30;;;5.80;;
16994;SDS011;8614;48.522;9.206;2022-09-09T11:02:43;6.83;;;6.40;;
16994;SDS011;8614;48.522;9.206;2022-09-09T11:05:14;6.70;;;6.30;;
16994;SDS011;8614;48.522;9.206;2022-09-09T11:07:46;6.30;;;5.80;;
16994;SDS011;8614;48.522;9.206;2022-09-09T11:10:19;6.60;;;6.00;;
16994;SDS011;8614;48.522;9.206;2022-09-09T11:12:50;3.13;;;2.00;;
16994;SDS011;8614;48.522;9.206;2022-09-09T11:15:22;4.10;;;3.80;;
16994;SDS011;8614;48.522;9.206;2022-09-09T11:17:55;5.80;;;5.30;;
16994;SDS011;8614;48.522;9.206;2022-09-09T11:20:26;6.00;;;5.57;;
16994;SDS011;8614;48.522;9.206;2022-09-09T11:22:54;5.83;;;5.20;;
16994;SDS011;8614;48.522;9.206;2022-09-09T11:25:26;5.60;;;5.20;;
16994;SDS011;8614;48.522;9.206;2022-09-09T11:28:01;4.27;;;3.40;;
16994;SDS011;8614;48.522;9.206;2022-09-09T11:30:44;5.60;;;5.00;;
16994;SDS011;8614;48.522;9.206;2022-09-09T11:33:28;5.90;;;5.40;;
16994;SDS011;8614;48.522;9.206;2022-09-09T11:36:16;6.17;;;5.67;;
16994;SDS011;8614;48.522;9.206;2022-09-09T11:39:26;4.67;;;4.10;;
16994;SDS011;8614;48.522;9.206;2022-09-09T11:42:08;3.83;;;3.53;;
16994;SDS011;8614;48.522;9.206;2022-09-09T11:44:43;5.70;;;5.20;;
16994;SDS011;8614;48.522;9.206;2022-09-09T11:47:22;6.10;;;5.60;;
16994;SDS011;8614;48.522;9.206;2022-09-09T11:49:54;5.93;;;5.43;;
16994;SDS011;8614;48.522;9.206;2022-09-09T11:52:37;6.00;;;5.60;;
16994;SDS011;8614;48.522;9.206;2022-09-09T11:55:10;6.00;;;5.60;;
16994;SDS011;8614;48.522;9.206;2022-09-09T11:57:56;5.80;;;5.50;;
16994;SDS011;8614;48.522;9.206;2022-09-09T12:00:31;6.00;;;5.70;;
16994;SDS011;8614;48.522;9.206;2022-09-09T12:03:00;6.37;;;5.90;;
16994;SDS011;8614;48.522;9.206;2022-09-09T12:05:35;6.27;;;5.77;;
16994;SDS011;8614;48.522;9.206;2022-09-09T12:08:06;6.20;;;5.70;;
16994;SDS011;8614;48.522;9.206;2022-09-09T12:10:38;6.00;;;5.60;;
16994;SDS011;8614;48.522;9.206;2022-09-09T12:13:15;5.07;;;4.77;;
16994;SDS011;8614;48.522;9.206;2022-09-09T12:15:46;6.33;;;5.93;;
16994;SDS011;8614;48.522;9.206;2022-09-09T12:18:14;5.73;;;5.43;;
16994;SDS011;8614;48.522;9.206;2022-09-09T12:20:50;5.97;;;5.50;;
16994;SDS011;8614;48.522;9.206;2022-09-09T12:23:27;6.00;;;5.60;;
16994;SDS011;8614;48.522;9.206;2022-09-09T12:26:04;6.73;;;6.20;;
16994;SDS011;8614;48.522;9.206;2022-09-09T12:28:45;2.63;;;1.53;;
16994;SDS011;8614;48.522;9.206;2022-09-09T12:31:20;3.17;;;1.70;;
16994;SDS011;8614;48.522;9.206;2022-09-09T12:33:50;5.20;;;4.80;;
16994;SDS011;8614;48.522;9.206;2022-09-09T12:36:18;5.63;;;5.10;;
16994;SDS011;8614;48.522;9.206;2022-09-09T12:38:49;5.47;;;5.07;;
16994;SDS011;8614;48.522;9.206;2022-09-09T12:41:20;2.10;;;1.80;;
16994;SDS011;8614;48.522;9.206;2022-09-09T12:43:49;3.60;;;1.90;;
16994;SDS011;8614;48.522;9.206;2022-09-09T12:46:21;2.70;;;1.60;;
16994;SDS011;8614;48.522;9.206;2022-09-09T12:48:56;3.30;;;1.77;;
16994;SDS011;8614;48.522;9.206;2022-09-09T12:51:24;1.97;;;1.60;;
16994;SDS011;8614;48.522;9.206;2022-09-09T12:53:56;3.23;;;1.80;;
16994;SDS011;8614;48.522;9.206;2022-09-09T12:56:24;3.17;;;1.70;;
16994;SDS011;8614;48.522;9.206;2022-09-09T12:58:53;4.40;;;1.83;;
16994;SDS011;8614;48.522;9.206;2022-09-09T13:01:23;2.67;;;1.70;;
16994;SDS011;8614;48.522;9.206;2022-09-09T13:03:51;1.97;;;1.67;;
16994;SDS011;8614;48.522;9.206;2022-09-09T13:06:20;3.53;;;2.00;;
16994;SDS011;8614;48.522;9.206;2022-09-09T13:08:56;2.33;;;1.70;;
16994;SDS011;8614;48.522;9.206;2022-09-09T13:11:26;10.43;;;2.07;;
16994;SDS011;8614;48.522;9.206;2022-09-09T13:13:58;2.80;;;1.70;;
16994;SDS011;8614;48.522;9.206;2022-09-09T13:16:26;1.90;;;1.80;;
16994;SDS011;8614;48.522;9.206;2022-09-09T13:18:56;2.63;;;1.80;;
16994;SDS011;8614;48.522;9.206;2022-09-09T13:21:31;1.70;;;1.60;;
16994;SDS011;8614;48.522;9.206;2022-09-09T13:24:01;2.27;;;1.70;;
16994;SDS011;8614;48.522;9.206;2022-09-09T13:26:29;3.17;;;1.63;;
16994;SDS011;8614;48.522;9.206;2022-09-09T13:29:07;1.80;;;1.70;;
16994;SDS011;8614;48.522;9.206;2022-09-09T13:31:40;1.60;;;1.50;;
16994;SDS011;8614;48.522;9.206;2022-09-09T13:34:10;3.57;;;1.70;;
16994;SDS011;8614;48.522;9.206;2022-09-09T13:36:39;2.90;;;1.83;;
16994;SDS011;8614;48.522;9.206;2022-09-09T13:39:14;3.47;;;1.80;;
16994;SDS011;8614;48.522;9.206;2022-09-09T13:41:43;1.97;;;1.83;;
16994;SDS011;8614;48.522;9.206;2022-09-09T13:44:17;4.93;;;4.53;;
16994;SDS011;8614;48.522;9.206;2022-09-09T13:46:58;3.37;;;1.70;;
16994;SDS011;8614;48.522;9.206;2022-09-09T13:49:28;6.50;;;6.00;;
16994;SDS011;8614;48.522;9.206;2022-09-09T13:52:08;6.50;;;6.00;;
16994;SDS011;8614;48.522;9.206;2022-09-09T13:54:37;6.10;;;5.70;;
16994;SDS011;8614;48.522;9.206;2022-09-09T13:57:04;5.73;;;5.23;;
16994;SDS011;8614;48.522;9.206;2022-09-09T13:59:32;7.97;;;7.37;;
16994;SDS011;8614;48.522;9.206;2022-09-09T14:01:59;6.47;;;5.87;;
16994;SDS011;8614;48.522;9.206;2022-09-09T14:04:26;4.00;;;3.70;;
16994;SDS011;8614;48.522;9.206;2022-09-09T14:06:54;6.83;;;6.40;;
16994;SDS011;8614;48.522;9.206;2022-09-09T14:09:21;6.87;;;6.27;;
16994;SDS011;8614;48.522;9.206;2022-09-09T14:11:49;6.83;;;6.33;;
16994;SDS011;8614;48.522;9.206;2022-09-09T14:14:16;6.13;;;5.73;;
16994;SDS011;8614;48.522;9.206;2022-09-09T14:16:43;8.07;;;7.53;;
16994;SDS011;8614;48.522;9.206;2022-09-09T14:19:10;6.67;;;6.17;;
16994;SDS011;8614;48.522;9.206;2022-09-09T14:21:37;6.00;;;5.70;;
16994;SDS011;8614;48.522;9.206;2022-09-09T14:24:04;6.60;;;6.10;;
16994;SDS011;8614;48.522;9.206;2022-09-09T14:26:31;6.27;;;5.87;;
16994;SDS011;8614;48.522;9.206;2022-09-09T14:28:59;5.93;;;5.53;;
16994;SDS011;8614;48.522;9.206;2022-09-09T14:31:26;6.67;;;5.97;;
16994;SDS011;8614;48.522;9.206;2022-09-09T14:33:53;6.00;;;5.60;;
16994;SDS011;8614;48.522;9.206;2022-09-09T14:36:20;6.47;;;5.93;;
16994;SDS011;8614;48.522;9.206;2022-09-09T14:38:47;6.40;;;5.80;;
16994;SDS011;8614;48.522;9.206;2022-09-09T14:41:15;6.10;;;5.70;;
16994;SDS011;8614;48.522;9.206;2022-09-09T14:43:45;5.80;;;5.40;;
16994;SDS011;8614;48.522;9.206;2022-09-09T14:46:14;5.97;;;5.47;;
16994;SDS011;8614;48.522;9.206;2022-09-09T14:48:42;5.90;;;5.50;;
16994;SDS011;8614;48.522;9.206;2022-09-09T14:51:10;5.93;;;5.53;;
16994;SDS011;8614;48.522;9.206;2022-09-09T14:53:40;5.50;;;5.20;;
16994;SDS011;8614;48.522;9.206;2022-09-09T14:56:08;5.90;;;5.50;;
16994;SDS011;8614;48.522;9.206;2022-09-09T14:58:37;6.13;;;5.63;;
16994;SDS011;8614;48.522;9.206;2022-09-09T15:01:04;6.13;;;5.17;;
16994;SDS011;8614;48.522;9.206;2022-09-09T15:03:34;6.23;;;5.50;;
16994;SDS011;8614;48.522;9.206;2022-09-09T15:06:05;6.20;;;5.60;;
16994;SDS011;8614;48.522;9.206;2022-09-09T15:08:33;6.10;;;5.70;;
16994;SDS011;8614;48.522;9.206;2022-09-09T15:11:01;6.40;;;5.90;;
16994;SDS011;8614;48.522;9.206;2022-09-09T15:13:29;6.03;;;5.43;;
16994;SDS011;8614;48.522;9.206;2022-09-09T15:16:00;5.70;;;5.30;;
16994;SDS011;8614;48.522;9.206;2022-09-09T15:18:30;5.70;;;5.40;;
16994;SDS011;8614;48.522;9.206;2022-09-09T15:20:59;5.80;;;5.50;;
16994;SDS011;8614;48.522;9.206;2022-09-09T15:23:28;6.07;;;5.67;;
16994;SDS011;8614;48.522;9.206;2022-09-09T15:25:56;6.20;;;5.70;;
16994;SDS011;8614;48.522;9.206;2022-09-09T15:28:23;5.90;;;5.50;;
16994;SDS011;8614;48.522;9.206;2022-09-09T15:30:51;6.03;;;5.63;;
16994;SDS011;8614;48.522;9.206;2022-09-09T15:33:18;6.77;;;6.17;;